| Date | Time | Temp. (oF) | Dew Point (oF) | Rel. Hum. (%) | Press. (in.) | Wind Dir. | Wind Speed (mph) | Hourly Rainfall (in.) |
|
|---|---|---|---|---|---|---|---|---|---|
| 1 | 05/21 | 00:00 | 66 | 59 | 81 | 30.07 | NE | 1 | 0.00 |
| 2 | 05/20 | 23:00 | 68 | 61 | 81 | 30.05 | N | 2 | 0.00 |
| 3 | 05/20 | 22:00 | 69 | 61 | 77 | 30.05 | WNW | 1 | 0.00 |
| 4 | 05/20 | 21:00 | 72 | 62 | 71 | 30.02 | WSW | 2 | 0.00 |
| 5 | 05/20 | 20:00 | 76 | 62 | 63 | 29.99 | WSW | 2 | 0.00 |
| 6 | 05/20 | 19:00 | 78 | 63 | 62 | 29.98 | W | 4 | 0.00 |
| 7 | 05/20 | 18:00 | 80 | 63 | 58 | 29.97 | NW | 4 | 0.00 |
| 8 | 05/20 | 17:00 | 81 | 67 | 63 | 29.95 | WNW | 5 | 0.00 |
| 9 | 05/20 | 16:00 | 79 | 65 | 64 | 29.97 | NW | 4 | 0.00 |
| 10 | 05/20 | 15:00 | 81 | 68 | 66 | 29.97 | W | 6 | 0.00 |
| 11 | 05/20 | 14:00 | 79 | 68 | 70 | 29.98 | WNW | 10 | 0.00 |
| 12 | 05/20 | 13:00 | 75 | 71 | 89 | 29.99 | NW | 4 | 0.01 |
| 13 | 05/20 | 12:00 | 75 | 66 | 75 | 29.99 | WSW | 2 | 0.00 |
| 14 | 05/20 | 11:00 | 77 | 67 | 72 | 29.99 | SSW | 9 | 0.00 |
| 15 | 05/20 | 10:00 | 74 | 67 | 81 | 29.99 | SSE | 4 | 0.00 |
| 16 | 05/20 | 09:00 | 71 | 67 | 89 | 29.99 | SSW | 3 | 0.00 |
| 17 | 05/20 | 08:00 | 70 | 68 | 95 | 29.98 | S | 7 | 0.00 |
| 18 | 05/20 | 07:00 | 68 | 68 | 100 | 29.98 | S | 2 | 0.00 |
| 19 | 05/20 | 06:00 | 67 | 67 | 100 | 29.96 | S | 3 | 0.00 |
| 20 | 05/20 | 05:00 | 68 | 68 | 100 | 29.96 | S | 4 | 0.00 |
| 21 | 05/20 | 04:00 | 67 | 67 | 100 | 29.96 | SSE | 2 | 0.00 |
| 22 | 05/20 | 03:00 | 67 | 67 | 100 | 29.97 | S | 6 | 0.00 |
| 23 | 05/20 | 02:00 | 65 | 64 | 100 | 29.99 | S | 2 | 0.00 |
| 24 | 05/20 | 01:00 | 65 | 64 | 100 | 30.00 | S | 1 | 0.00 |